Terminal Aerodrome Forecast
Issued by NWS

Home | Current Version | Previous Version | Text Only | Print | Product List | Glossary On
Versions: 1 2 3 4 5 6 7 8 9 10 11 12 13 14 15 16 17 18 19 20 21
000
FTUS41 KCAR 211200 AAA
TAFPQI
TAF AMD
KPQI 211220Z 2112/2212 00000KT P6SM BKN250
     FM220400 03006KT P6SM OVC040
     FM220500 03006KT 3SM -RA OVC030
     FM220900 03007KT P6SM OVC025
      AMD LTD TO CLD VIS AND WIND=

USA.gov is the U.S. government's official web portal to all federal, state and local government web resources and services.